^^
Grace C. Lehan Memorial Weather Station Historical Data
Daily Summary for February 11, 2021 Units:  English    Metric   Both
Daily Weekly Monthly Yearly
  High: Low: Average:
Temperature: 91.4 °F 73 °F 79.9 °F
Dew Point: 78 °F 70.6 °F 74 °F
Humidity: 94% 62.3% 83%
Wind Speed: 4mph 0mph 0.2mph
Wind Gust: 10mph - -
Wind- - SW
Pressure: 30.02 in 29.89 in -
Precipitation: 0.00 in    
 
 
Tabular Data for February 11, 2021
Time Temperature Dew Point Pressure Wind Wind Speed Wind Gust Humidity Rainfall Rate (Hourly) solar
00:09 75.8 °F 72.9 °F 30.01 in Calm     91% 0.00 in 0 W/m2
00:14 75.7 °F 72.9 °F 30.01 in Calm     91% 0.00 in 0 W/m2
00:19 75.7 °F 72.9 °F 30.01 in Calm     91% 0.00 in 0 W/m2
00:24 75.6 °F 72.8 °F 30.01 in Calm     91% 0.00 in 0 W/m2
00:29 75.6 °F 72.8 °F 30.01 in Calm     91% 0.00 in 0 W/m2
00:34 75.6 °F 72.8 °F 30.01 in Calm     91% 0.00 in 0 W/m2
00:39 75.5 °F 72.7 °F 30.02 in Calm     91% 0.00 in 0 W/m2
00:44 75.5 °F 72.7 °F 30.02 in Calm     91% 0.00 in 0 W/m2
00:49 75.5 °F 72.7 °F 30.02 in Calm     91% 0.00 in 0 W/m2
00:54 75.4 °F 72.6 °F 30.01 in Calm     91% 0.00 in 0 W/m2
00:59 75.4 °F 72.6 °F 30.01 in Calm   1 mph 91% 0.00 in 0 W/m2
01:04 75.4 °F 72.6 °F 30.01 in Calm   1 mph 91% 0.00 in 0 W/m2
01:09 75.3 °F 72.5 °F 30.01 in Calm     91% 0.00 in 0 W/m2
01:14 75.3 °F 72.5 °F 30.01 in Calm     91% 0.00 in 0 W/m2
01:19 75.3 °F 72.5 °F 30.01 in Calm   1 mph 91% 0.00 in 0 W/m2
01:24 75.2 °F 72.4 °F 30.00 in Calm   1 mph 91% 0.00 in 0 W/m2
01:29 75.1 °F 72.3 °F 30.00 in Calm   1 mph 91% 0.00 in 0 W/m2
01:34 75.1 °F 72.4 °F 30.00 in Calm   1 mph 91.2% 0.00 in 0 W/m2
01:39 75 °F 72.5 °F 30.00 in Calm     92% 0.00 in 0 W/m2
01:44 74.9 °F 72.5 °F 29.99 in Calm   1 mph 92% 0.00 in 0 W/m2
01:49 74.9 °F 72.4 °F 29.99 in Calm   1 mph 92% 0.00 in 0 W/m2
01:54 74.8 °F 72.3 °F 29.99 in Calm   1 mph 92% 0.00 in 0 W/m2
01:59 74.7 °F 72.2 °F 29.99 in Calm   1 mph 92% 0.00 in 0 W/m2
02:04 74.6 °F 72.1 °F 29.99 in Calm   1 mph 92% 0.00 in 0 W/m2
02:09 74.5 °F 72.1 °F 29.99 in Calm     92% 0.00 in 0 W/m2
02:14 74.4 °F 72 °F 29.99 in Calm     92% 0.00 in 0 W/m2
02:19 74.4 °F 71.9 °F 29.99 in Calm     92% 0.00 in 0 W/m2
02:24 74.3 °F 71.8 °F 29.99 in Calm     92% 0.00 in 0 W/m2
02:29 74.2 °F 71.7 °F 29.99 in Calm     92% 0.00 in 0 W/m2
02:34 74.1 °F 71.6 °F 29.99 in Calm     92% 0.00 in 0 W/m2
02:39 74 °F 71.5 °F 30.00 in Calm     92% 0.00 in 0 W/m2
02:44 73.9 °F 71.4 °F 30.00 in Calm     92% 0.00 in 0 W/m2
02:49 73.8 °F 71.4 °F 29.99 in Calm     92% 0.00 in 0 W/m2
02:54 73.8 °F 71.3 °F 29.99 in Calm     92% 0.00 in 0 W/m2
02:59 73.7 °F 71.2 °F 29.99 in Calm     92% 0.00 in 0 W/m2
03:04 73.6 °F 71.2 °F 29.99 in Calm     92% 0.00 in 0 W/m2
03:09 73.5 °F 71.4 °F 29.99 in Calm     92.9% 0.00 in 0 W/m2
03:14 73.5 °F 71.4 °F 29.99 in Calm     93% 0.00 in 0 W/m2
03:19 73.5 °F 71.4 °F 29.99 in Calm     93% 0.00 in 0 W/m2
03:24 73.5 °F 71.3 °F 29.99 in Calm     93% 0.00 in 0 W/m2
03:29 73.4 °F 71 °F 30.00 in Calm   1 mph 92.2% 0.00 in 0 W/m2
03:34 73.4 °F 70.9 °F 29.99 in Calm   1 mph 92% 0.00 in 0 W/m2
03:39 73.3 °F 70.8 °F 29.99 in Calm     92% 0.00 in 0 W/m2
03:44 73.2 °F 70.8 °F 29.99 in Calm     92% 0.00 in 0 W/m2
03:49 73.2 °F 70.7 °F 29.99 in Calm     92% 0.00 in 0 W/m2
03:54 73.1 °F 70.6 °F 29.99 in Calm     92% 0.00 in 0 W/m2
03:59 73.1 °F 70.7 °F 29.99 in Calm     92.2% 0.00 in 0 W/m2
04:09 73.1 °F 71 °F 29.99 in Calm     93% 0.00 in 0 W/m2
04:14 73.1 °F 70.9 °F 29.99 in Calm     93% 0.00 in 0 W/m2
04:19 73 °F 70.9 °F 29.99 in Calm   2 mph 93% 0.00 in 0 W/m2
04:24 73 °F 70.9 °F 29.99 in Calm   2 mph 93% 0.00 in 0 W/m2
04:29 73 °F 70.9 °F 29.99 in Calm   2 mph 93% 0.00 in 0 W/m2
04:34 73 °F 70.9 °F 29.99 in Calm   2 mph 93% 0.00 in 0 W/m2
04:39 73 °F 70.9 °F 29.99 in Calm   2 mph 93% 0.00 in 0 W/m2
04:44 73 °F 70.9 °F 29.98 in Calm   2 mph 93% 0.00 in 0 W/m2
04:49 73.1 °F 70.9 °F 29.98 in Calm   2 mph 93% 0.00 in 0 W/m2
04:54 73.1 °F 71 °F 29.98 in Calm   2 mph 93% 0.00 in 0 W/m2
04:59 73.1 °F 71 °F 29.98 in Calm   2 mph 93% 0.00 in 0 W/m2
05:04 73.1 °F 71 °F 29.98 in Calm   2 mph 93% 0.00 in 0 W/m2
05:09 73.1 °F 71 °F 29.98 in Calm   1 mph 93% 0.00 in 0 W/m2
05:14 73.2 °F 71 °F 29.98 in Calm   1 mph 93% 0.00 in 0 W/m2
05:19 73.2 °F 71.1 °F 29.98 in Calm   1 mph 93% 0.00 in 0 W/m2
05:24 73.2 °F 71 °F 29.98 in Calm   1 mph 93% 0.00 in 0 W/m2
05:29 73.2 °F 71 °F 29.98 in Calm   1 mph 93% 0.00 in 0 W/m2
05:34 73.2 °F 71.1 °F 29.98 in Calm   1 mph 93% 0.00 in 0 W/m2
05:39 73.2 °F 71.1 °F 29.98 in Calm     93% 0.00 in 0 W/m2
05:44 73.2 °F 71.1 °F 29.98 in Calm     93% 0.00 in 0 W/m2
05:49 73.2 °F 71 °F 29.98 in Calm     93% 0.00 in 0 W/m2
05:54 73.1 °F 71 °F 29.98 in Calm     93% 0.00 in 0 W/m2
05:59 73.1 °F 71 °F 29.98 in Calm     93% 0.00 in 0 W/m2
06:04 73.1 °F 70.9 °F 29.98 in Calm     93% 0.00 in 5 W/m2
06:09 73 °F 70.9 °F 29.99 in Calm     93% 0.00 in 9 W/m2
06:14 73 °F 71.2 °F 29.99 in Calm     94% 0.00 in 16 W/m2
06:19 73 °F 71.2 °F 29.99 in Calm     94% 0.00 in 18 W/m2
06:24 73.1 °F 71.3 °F 29.99 in Calm     94% 0.00 in 18 W/m2
06:29 73.1 °F 71.3 °F 29.98 in Calm     94% 0.00 in 18 W/m2
06:34 73.2 °F 71.4 °F 29.98 in Calm     94% 0.00 in 23 W/m2
06:39 73.2 °F 71.4 °F 29.99 in Calm     94% 0.00 in 26 W/m2
06:44 73.3 °F 71.5 °F 29.99 in Calm     94% 0.00 in 33 W/m2
06:49 73.3 °F 71.5 °F 29.99 in Calm     94% 0.00 in 47 W/m2
06:54 73.4 °F 71.6 °F 29.99 in SSW 0.1 mph 2 mph 94% 0.00 in 58 W/m2
06:59 73.5 °F 71.7 °F 29.99 in Calm   2 mph 94% 0.00 in 76 W/m2
07:04 73.6 °F 71.8 °F 29.99 in Calm   2 mph 94% 0.00 in 76 W/m2
07:09 73.8 °F 71.9 °F 29.99 in Calm     94% 0.00 in 65 W/m2
07:14 73.9 °F 71.8 °F 29.99 in Calm   1 mph 93.1% 0.00 in 62 W/m2
07:19 74 °F 71.8 °F 29.99 in SSW 0.1 mph 2 mph 93% 0.00 in 54 W/m2
07:24 74.1 °F 71.9 °F 29.99 in SSW 0.1 mph 2 mph 93% 0.00 in 54 W/m2
07:29 74.2 °F 72 °F 29.98 in Calm   2 mph 93% 0.00 in 54 W/m2
07:34 74.2 °F 71.8 °F 29.98 in Calm   2 mph 92.3% 0.00 in 49 W/m2
07:39 74.3 °F 71.8 °F 29.98 in Calm     92% 0.00 in 53 W/m2
07:44 74.4 °F 71.9 °F 29.98 in Calm   1 mph 92% 0.00 in 58 W/m2
07:49 74.5 °F 72.1 °F 29.98 in Calm   1 mph 92% 0.00 in 72 W/m2
07:54 74.6 °F 71.8 °F 29.98 in Calm   1 mph 91% 0.00 in 102 W/m2
07:59 74.8 °F 72 °F 29.98 in SSW 0.1 mph 2 mph 91% 0.00 in 109 W/m2
08:00 74.9 °F 72.1 °F 29.98 in Calm   2 mph 91% 0.00 in 88 W/m2
08:09 75.2 °F 72.2 °F 29.98 in Calm     90.5% 0.00 in 130 W/m2
08:14 75.4 °F 72.2 °F 29.98 in Calm     90% 0.00 in 76 W/m2
08:19 75.5 °F 72.3 °F 29.97 in Calm     89.6% 0.00 in 84 W/m2
08:24 75.7 °F 72.3 °F 29.97 in Calm     89.1% 0.00 in 325 W/m2
08:29 76.3 °F 72.8 °F 29.97 in Calm     89% 0.00 in 350 W/m2
08:34 77.1 °F 73.3 °F 29.97 in Calm     88.1% 0.00 in 373 W/m2
08:39 77.9 °F 73.3 °F 29.97 in Calm   1 mph 85.7% 0.00 in 404 W/m2
08:44 78.5 °F 73.3 °F 29.97 in Calm   1 mph 84.2% 0.00 in 420 W/m2
08:49 79.1 °F 73.6 °F 29.97 in Calm   1 mph 83.2% 0.00 in 441 W/m2
08:54 79.9 °F 73.9 °F 29.98 in SSW 0.1 mph 3 mph 82% 0.00 in 459 W/m2
08:59 80.6 °F 74.4 °F 29.98 in Calm   3 mph 81.6% 0.00 in 464 W/m2
09:04 81.5 °F 75.1 °F 29.98 in Calm   3 mph 80.8% 0.00 in 480 W/m2
09:09 82.4 °F 75 °F 29.98 in WSW 0.9 mph 10 mph 78.3% 0.00 in 517 W/m2
09:14 83.1 °F 75.2 °F 29.98 in Calm   10 mph 77.2% 0.00 in 561 W/m2
09:19 83.6 °F 75.3 °F 29.98 in West 0.8 mph 10 mph 76.1% 0.00 in 622 W/m2
09:24 84 °F 75 °F 29.98 in WSW 0.9 mph 10 mph 74.6% 0.00 in 622 W/m2
09:29 83.9 °F 74.4 °F 29.98 in WSW 0.4 mph 10 mph 73.4% 0.00 in 167 W/m2
09:34 83.6 °F 75 °F 29.98 in SW 0.6 mph 10 mph 75.2% 0.00 in 596 W/m2
09:39 83.6 °F 74.9 °F 29.98 in SW 0.3 mph 6 mph 75% 0.00 in 538 W/m2
09:44 83.9 °F 75.1 °F 29.98 in SW 0.1 mph 6 mph 75% 0.00 in 612 W/m2
09:49 84.3 °F 75.4 °F 29.98 in SW 0.4 mph 6 mph 74.7% 0.00 in 621 W/m2
09:54 84.9 °F 75.2 °F 29.98 in SW 0.8 mph 6 mph 72.8% 0.00 in 650 W/m2
09:59 85.2 °F 75.3 °F 29.98 in SW 0.7 mph 6 mph 72.4% 0.00 in 661 W/m2
10:04 85.4 °F 75.3 °F 29.99 in SW 0.5 mph 6 mph 71.7% 0.00 in 635 W/m2
10:09 85.7 °F 75.2 °F 29.99 in SW 0.4 mph 4 mph 71.1% 0.00 in 650 W/m2
10:14 86 °F 75.9 °F 29.99 in SW 0.1 mph 4 mph 71.9% 0.00 in 628 W/m2
10:19 86.6 °F 76 °F 29.98 in Calm   4 mph 70.9% 0.00 in 679 W/m2
10:24 87 °F 76.2 °F 29.98 in WSW 0.7 mph 6 mph 70.3% 0.00 in 691 W/m2
10:29 87.3 °F 76.1 °F 29.98 in West 0.5 mph 6 mph 69.5% 0.00 in 710 W/m2
10:34 87.6 °F 75.8 °F 29.98 in SW 0.7 mph 6 mph 68.2% 0.00 in 712 W/m2
10:39 88 °F 76.3 °F 29.98 in WSW 0.4 mph 5 mph 68.6% 0.00 in 733 W/m2
10:44 88.5 °F 76.6 °F 29.98 in WSW 0.6 mph 5 mph 68.1% 0.00 in 742 W/m2
10:49 88.7 °F 75.8 °F 29.98 in SW 1 mph 5 mph 65.8% 0.00 in 784 W/m2
10:54 88.8 °F 76 °F 29.97 in SW 0.7 mph 5 mph 66% 0.00 in 823 W/m2
10:59 89.1 °F 76 °F 29.97 in SW 1.4 mph 7 mph 65.5% 0.00 in 823 W/m2
11:04 89.4 °F 76.1 °F 29.97 in WSW 1.2 mph 7 mph 65.2% 0.00 in 759 W/m2
11:09 89.7 °F 76.5 °F 29.97 in WSW 1 mph 6 mph 65.3% 0.00 in 770 W/m2
11:14 90 °F 76.4 °F 29.97 in SW 1.9 mph 7 mph 64.4% 0.00 in 780 W/m2
11:19 90.2 °F 76.3 °F 29.97 in SW 1.8 mph 7 mph 64% 0.00 in 796 W/m2
11:24 90.2 °F 76.7 °F 29.97 in SW 1.6 mph 7 mph 64.6% 0.00 in 786 W/m2
11:29 90.1 °F 76.3 °F 29.96 in SW 0.7 mph 7 mph 64% 0.00 in 782 W/m2
11:34 90.1 °F 76 °F 29.96 in SW 0.2 mph 7 mph 63.4% 0.00 in 788 W/m2
11:39 90.1 °F 76.1 °F 29.96 in SW 1.1 mph 5 mph 63.7% 0.00 in 789 W/m2
11:44 90.1 °F 76.2 °F 29.96 in SW 0.6 mph 5 mph 63.7% 0.00 in 793 W/m2
11:49 90.4 °F 77.1 °F 29.96 in SW 1.4 mph 5 mph 65.1% 0.00 in 812 W/m2
11:54 90.7 °F 76.5 °F 29.96 in SW 1 mph 5 mph 63.1% 0.00 in 826 W/m2
11:59 90.8 °F 76.4 °F 29.96 in SW 0.7 mph 6 mph 62.8% 0.00 in 821 W/m2
12:00 90.8 °F 76.5 °F 29.95 in SW 4 mph 6 mph 63% 0.00 in 814 W/m2
12:09 90.8 °F 76.7 °F 29.95 in SW 1.2 mph 6 mph 63.4% 0.00 in 821 W/m2
12:14 91 °F 76.7 °F 29.95 in SW 1.3 mph 6 mph 63.1% 0.00 in 817 W/m2
12:19 90.9 °F 76.2 °F 29.95 in SW 1.2 mph 6 mph 62.3% 0.00 in 821 W/m2
12:24 90.6 °F 76.2 °F 29.95 in SW 1.2 mph 6 mph 62.9% 0.00 in 826 W/m2
12:29 90.5 °F 76.6 °F 29.95 in SSW 1.1 mph 6 mph 63.9% 0.00 in 831 W/m2
12:34 90.6 °F 76.5 °F 29.95 in WSW 0.4 mph 6 mph 63.5% 0.00 in 837 W/m2
12:39 90.5 °F 76.5 °F 29.95 in West 1.3 mph 5 mph 63.6% 0.00 in 835 W/m2
12:44 90.4 °F 76.3 °F 29.95 in SW 0.6 mph 6 mph 63.5% 0.00 in 835 W/m2
12:49 90.3 °F 76.6 °F 29.95 in WSW 0.3 mph 6 mph 64.3% 0.00 in 840 W/m2
12:54 90.4 °F 76.6 °F 29.95 in SW 0.8 mph 6 mph 64.1% 0.00 in 842 W/m2
12:59 90.4 °F 76.7 °F 29.95 in South 1 mph 6 mph 64.3% 0.00 in 847 W/m2
13:04 90.3 °F 76.5 °F 29.94 in South 0.6 mph 6 mph 64% 0.00 in 844 W/m2
13:09 90.4 °F 76.7 °F 29.94 in South 0.4 mph 3 mph 64.3% 0.00 in 851 W/m2
13:14 90.5 °F 77.2 °F 29.94 in SSW 1.5 mph 6 mph 65% 0.00 in 846 W/m2
13:24 91 °F 77 °F 29.93 in SW 0.9 mph 7 mph 63.7% 0.00 in 930 W/m2
13:29 91.2 °F 77.3 °F 29.93 in SW 1.6 mph 9 mph 64% 0.00 in 260 W/m2
13:34 91.3 °F 77.1 °F 29.93 in SW 0.6 mph 9 mph 63.3% 0.00 in 490 W/m2
13:39 91.4 °F 77.6 °F 29.93 in SW 1.2 mph 5 mph 64.2% 0.00 in 214 W/m2
13:44 91.2 °F 77.3 °F 29.93 in WSW 0.7 mph 5 mph 63.9% 0.00 in 243 W/m2
14:04 91 °F 77.7 °F 29.93 in SSW 0.1 mph 7 mph 65.2% 0.00 in 800 W/m2
14:09 91.2 °F 78 °F 29.93 in SSW 1.1 mph 4 mph 65.3% 0.00 in 823 W/m2
17:30 89.2 °F 77.3 °F 29.90 in WSW 1 mph 7 mph 68% 0.00 in 65 W/m2
18:00 87.4 °F 77.7 °F 29.91 in Calm   3 mph 73% 0.00 in 30 W/m2
18:30 86.2 °F 77.3 °F 29.89 in Calm   4 mph 75% 0.00 in 23 W/m2
19:00 85.7 °F 77.7 °F 29.89 in Calm   3 mph 77% 0.00 in 32 W/m2
19:30 84.7 °F 77.1 °F 29.90 in Calm   4 mph 78% 0.00 in 35 W/m2
20:04 83.6 °F 76.8 °F 29.90 in Calm     80% 0.00 in 0 W/m2
20:09 83.5 °F 76.7 °F 29.91 in Calm     80% 0.00 in 0 W/m2
20:14 83.4 °F 76.6 °F 29.91 in Calm     80% 0.00 in 0 W/m2
20:19 83.2 °F 76.6 °F 29.91 in Calm   1 mph 80.5% 0.00 in 0 W/m2
20:24 83.1 °F 76.6 °F 29.92 in Calm   2 mph 81% 0.00 in 0 W/m2
20:29 83 °F 76.5 °F 29.92 in Calm   2 mph 81% 0.00 in 0 W/m2
20:34 82.9 °F 76.5 °F 29.92 in Calm   2 mph 81.1% 0.00 in 0 W/m2
20:39 82.7 °F 76.7 °F 29.92 in Calm   1 mph 82% 0.00 in 0 W/m2
20:44 82.6 °F 76.6 °F 29.92 in Calm   1 mph 82% 0.00 in 0 W/m2
20:49 82.5 °F 76.5 °F 29.92 in Calm   1 mph 82.2% 0.00 in 0 W/m2
20:54 82.4 °F 76.6 °F 29.92 in Calm   1 mph 82.9% 0.00 in 0 W/m2
20:59 82.3 °F 76.6 °F 29.93 in WSW 0.1 mph 3 mph 83% 0.00 in 0 W/m2
21:04 82.1 °F 76.5 °F 29.93 in WSW 0.1 mph 3 mph 83% 0.00 in 0 W/m2
21:09 82 °F 76.4 °F 29.93 in Calm   2 mph 83% 0.00 in 0 W/m2
21:14 81.9 °F 76.6 °F 29.93 in Calm   2 mph 84% 0.00 in 0 W/m2
21:19 81.8 °F 76.5 °F 29.93 in Calm   2 mph 84% 0.00 in 0 W/m2
21:24 81.7 °F 76.4 °F 29.93 in WSW 0.1 mph 2 mph 84% 0.00 in 0 W/m2
21:29 81.6 °F 76.3 °F 29.93 in Calm   2 mph 84% 0.00 in 0 W/m2
21:34 81.5 °F 76.3 °F 29.93 in Calm   2 mph 84.3% 0.00 in 0 W/m2
21:39 81.4 °F 76.4 °F 29.93 in Calm     85% 0.00 in 0 W/m2
21:44 81.3 °F 76.4 °F 29.93 in Calm     85% 0.00 in 0 W/m2
21:49 81.2 °F 76.3 °F 29.93 in Calm   1 mph 85% 0.00 in 0 W/m2
21:54 81.1 °F 76.2 °F 29.93 in Calm   1 mph 85% 0.00 in 0 W/m2
21:59 81.1 °F 76.1 °F 29.93 in Calm   1 mph 85% 0.00 in 0 W/m2
22:04 81 °F 76.1 °F 29.93 in Calm   1 mph 85% 0.00 in 0 W/m2
22:09 80.9 °F 76.1 °F 29.93 in Calm     85.3% 0.00 in 0 W/m2
22:14 80.8 °F 76.2 °F 29.94 in Calm     86% 0.00 in 0 W/m2
22:19 80.7 °F 76.1 °F 29.94 in Calm     86% 0.00 in 0 W/m2
22:24 80.6 °F 76.1 °F 29.94 in Calm     86% 0.00 in 0 W/m2
22:29 80.5 °F 76 °F 29.94 in Calm     86% 0.00 in 0 W/m2
22:34 80.4 °F 75.9 °F 29.94 in Calm     86% 0.00 in 0 W/m2
22:39 80.4 °F 75.8 °F 29.93 in Calm     86% 0.00 in 0 W/m2
22:44 80.3 °F 75.7 °F 29.93 in Calm     86% 0.00 in 0 W/m2
22:49 80.2 °F 75.9 °F 29.93 in Calm     86.6% 0.00 in 0 W/m2
22:54 80.1 °F 75.9 °F 29.93 in Calm     87% 0.00 in 0 W/m2
22:59 80.1 °F 75.9 °F 29.93 in Calm     87% 0.00 in 0 W/m2
23:04 80 °F 75.8 °F 29.92 in Calm     87% 0.00 in 0 W/m2
23:09 80 °F 75.7 °F 29.92 in Calm     87% 0.00 in 0 W/m2
23:14 79.9 °F 75.7 °F 29.92 in Calm     87% 0.00 in 0 W/m2
23:19 79.8 °F 75.6 °F 29.92 in Calm     87% 0.00 in 0 W/m2
23:24 79.8 °F 75.6 °F 29.92 in Calm     87% 0.00 in 0 W/m2
23:29 79.7 °F 75.5 °F 29.92 in Calm     87% 0.00 in 0 W/m2
23:34 79.6 °F 75.4 °F 29.92 in Calm     87% 0.00 in 0 W/m2
23:39 79.5 °F 75.4 °F 29.92 in Calm     87.2% 0.00 in 0 W/m2
23:44 79.4 °F 75.5 °F 29.92 in Calm     88% 0.00 in 0 W/m2
23:49 79.2 °F 75.4 °F 29.92 in Calm     88% 0.00 in 0 W/m2
23:54 79.1 °F 75.3 °F 29.92 in Calm     88% 0.00 in 0 W/m2
23:59 79 °F 75.2 °F 29.92 in Calm     88% 0.00 in 0 W/m2
Hartford County Weather
Compliments of Weather Underground - 4 mb